Pagrindinis puslapis
METAR-TAF:

METAR-TAF

Oro uostai :

Mauricijus, Mauricijus

platuma: 20-26S, ilguma: 057-40E, Aukštis: 55 m

Dabartinis oras

Ataskaita buvo paskelbta 1 valandą ir 4 minutes, ne 21:00 UTC
Ramus vėjas
Temperatūra 26°C
Drėgmė 89%
Slėgis 1014 hPa
Matomumas 10 km arba daugiau
Su prošvaistėmis ne aukštis 1500 ft

METAR: FIMP 102100Z 00000KT 9999 BKN015 26/24 Q1014

Laikas: 02:04 (22:04 UTC)

Prognozė

Ataskaita buvo paskelbta 4 valandos ir 54 minutes, ne 17:10 UTC
Prognozė galioja nuo 10 metu 18 UTC su 12 metu 00 UTC
Vėjas 3 kt iš Šiaurės/Šiaurės Vakarų
Matomumas 10 km arba daugiau
Išsisklaidę debesys ne aukštis 1800 ft
Tapsmas
nuo 11 metu 04 UTC su 11 metu 06 UTC
Vėjas 8 kt iš Šiaurės Rytų
Laikinai
nuo 11 metu 09 UTC su 11 metu 15 UTC
Matomumas: 5000 m
Mažai debesys ne aukštis 1000 ft
Mažai debesys ne aukštis 1200 ft, Liūtiniai kamuoliniai debesys.
Su prošvaistėmis ne aukštis 1400 ft

TAF: FIMP 101710Z 1018/1200 33003KT 9999 SCT018 BECMG 1104/1106 04008KT TEMPO 1109/1115 5000 SHRA/TSRA FEW010 FEW012CB BKN014

Orai ataskaitas ir orų prognozės (METAR, TAF).

turimą stotys yra geltonos ir raudonos taškus žemėlapyje.

Perkelti pele per norėdami pamatyti stoties vardą.

Tada spustelėkite, norėdami matyti oro stebėjimo ir prognozės.

Norėdami pakeisti žemėlapį: spustelėkite ant žalios mygtukų su juodo kryžiaus žemyn,; žalią mygtuką su brūkšneliu, jei norite nutolinti; arba žalių rodyklių gretimoms žemėlapius.


METAR-TAF: